sensor_id;sensor_type;location;lat;lon;timestamp;pressure;altitude;pressure_sealevel;temperature;humidity
59409;BME280;45213;32.654;-115.458;2023-04-01T00:01:04;101958.44;;;23.24;22.32
59409;BME280;45213;32.654;-115.458;2023-04-01T00:03:32;101949.25;;;23.01;22.27
59409;BME280;45213;32.654;-115.458;2023-04-01T00:05:59;101949.59;;;23.23;23.34
59409;BME280;45213;32.654;-115.458;2023-04-01T00:08:27;101949.50;;;23.26;21.80
59409;BME280;45213;32.654;-115.458;2023-04-01T00:10:54;101947.41;;;23.03;21.87
59409;BME280;45213;32.654;-115.458;2023-04-01T00:13:21;101947.63;;;22.94;21.79
59409;BME280;45213;32.654;-115.458;2023-04-01T00:15:48;101949.59;;;22.84;21.72
59409;BME280;45213;32.654;-115.458;2023-04-01T00:18:15;101954.97;;;22.83;22.10
59409;BME280;45213;32.654;-115.458;2023-04-01T00:20:46;101959.38;;;22.82;21.91
59409;BME280;45213;32.654;-115.458;2023-04-01T00:23:13;101955.13;;;22.75;21.67
59409;BME280;45213;32.654;-115.458;2023-04-01T00:25:40;101954.44;;;22.67;21.81
59409;BME280;45213;32.654;-115.458;2023-04-01T00:28:07;101948.31;;;22.63;22.56
59409;BME280;45213;32.654;-115.458;2023-04-01T00:30:36;101948.56;;;22.52;22.25
59409;BME280;45213;32.654;-115.458;2023-04-01T00:33:03;101945.03;;;22.52;22.83
59409;BME280;45213;32.654;-115.458;2023-04-01T00:35:30;101942.59;;;22.43;21.79
59409;BME280;45213;32.654;-115.458;2023-04-01T00:37:58;101943.72;;;22.31;22.51
59409;BME280;45213;32.654;-115.458;2023-04-01T00:40:34;101942.31;;;22.13;23.24
59409;BME280;45213;32.654;-115.458;2023-04-01T00:43:02;101943.91;;;22.20;23.57
59409;BME280;45213;32.654;-115.458;2023-04-01T00:45:32;101938.03;;;22.06;23.00
59409;BME280;45213;32.654;-115.458;2023-04-01T00:48:04;101941.47;;;22.11;23.49
59409;BME280;45213;32.654;-115.458;2023-04-01T00:50:33;101936.34;;;22.02;23.67
59409;BME280;45213;32.654;-115.458;2023-04-01T00:53:01;101936.50;;;21.94;22.82
59409;BME280;45213;32.654;-115.458;2023-04-01T00:55:32;101933.13;;;21.86;23.54
59409;BME280;45213;32.654;-115.458;2023-04-01T00:58:03;101933.19;;;21.83;23.62
59409;BME280;45213;32.654;-115.458;2023-04-01T01:00:30;101936.81;;;21.79;23.50
59409;BME280;45213;32.654;-115.458;2023-04-01T01:02:57;101932.28;;;21.84;23.41
59409;BME280;45213;32.654;-115.458;2023-04-01T01:05:36;101928.88;;;21.77;23.60
59409;BME280;45213;32.654;-115.458;2023-04-01T01:11:14;101918.56;;;21.62;23.39
59409;BME280;45213;32.654;-115.458;2023-04-01T01:14:04;101924.59;;;21.70;23.27
59409;BME280;45213;32.654;-115.458;2023-04-01T01:16:42;101907.97;;;21.62;23.49
59409;BME280;45213;32.654;-115.458;2023-04-01T01:27:26;101915.50;;;21.35;23.46
59409;BME280;45213;32.654;-115.458;2023-04-01T01:37:43;101911.41;;;21.17;23.87
59409;BME280;45213;32.654;-115.458;2023-04-01T01:40:11;101911.56;;;21.08;23.52
59409;BME280;45213;32.654;-115.458;2023-04-01T01:42:44;101917.94;;;20.96;23.98
59409;BME280;45213;32.654;-115.458;2023-04-01T01:45:15;101911.88;;;20.88;23.94
59409;BME280;45213;32.654;-115.458;2023-04-01T01:47:45;101919.91;;;20.82;23.81
59409;BME280;45213;32.654;-115.458;2023-04-01T01:50:14;101910.44;;;20.67;24.03
59409;BME280;45213;32.654;-115.458;2023-04-01T01:52:42;101909.59;;;20.63;24.34
59409;BME280;45213;32.654;-115.458;2023-04-01T01:55:43;101907.06;;;20.53;24.52
59409;BME280;45213;32.654;-115.458;2023-04-01T01:58:23;101912.50;;;20.43;24.45
59409;BME280;45213;32.654;-115.458;2023-04-01T02:01:04;101898.47;;;20.38;24.01
59409;BME280;45213;32.654;-115.458;2023-04-01T02:03:35;101902.13;;;20.30;24.67
59409;BME280;45213;32.654;-115.458;2023-04-01T02:06:06;101903.09;;;20.22;24.50
59409;BME280;45213;32.654;-115.458;2023-04-01T02:08:47;101912.06;;;20.12;24.69
59409;BME280;45213;32.654;-115.458;2023-04-01T02:11:17;101910.34;;;20.08;24.48
59409;BME280;45213;32.654;-115.458;2023-04-01T02:14:11;101905.06;;;20.08;24.91
59409;BME280;45213;32.654;-115.458;2023-04-01T02:17:11;101908.63;;;20.06;24.16
59409;BME280;45213;32.654;-115.458;2023-04-01T02:19:46;101913.88;;;20.07;24.55
59409;BME280;45213;32.654;-115.458;2023-04-01T02:22:20;101912.06;;;20.12;24.60
59409;BME280;45213;32.654;-115.458;2023-04-01T02:24:50;101910.31;;;20.11;24.46
59409;BME280;45213;32.654;-115.458;2023-04-01T02:27:20;101900.66;;;20.07;24.87
59409;BME280;45213;32.654;-115.458;2023-04-01T02:29:47;101906.00;;;20.02;24.98
59409;BME280;45213;32.654;-115.458;2023-04-01T02:32:14;101911.38;;;19.95;25.63
59409;BME280;45213;32.654;-115.458;2023-04-01T02:34:43;101912.34;;;19.88;25.68
59409;BME280;45213;32.654;-115.458;2023-04-01T02:37:11;101912.47;;;19.78;26.53
59409;BME280;45213;32.654;-115.458;2023-04-01T02:39:39;101914.34;;;19.64;26.07
59409;BME280;45213;32.654;-115.458;2023-04-01T02:42:07;101921.38;;;19.65;26.13
59409;BME280;45213;32.654;-115.458;2023-04-01T02:44:34;101919.63;;;19.64;26.33
59409;BME280;45213;32.654;-115.458;2023-04-01T02:47:01;101918.06;;;19.46;27.28
59409;BME280;45213;32.654;-115.458;2023-04-01T02:49:28;101916.44;;;19.31;26.97
59409;BME280;45213;32.654;-115.458;2023-04-01T02:51:54;101915.66;;;19.22;27.21
59409;BME280;45213;32.654;-115.458;2023-04-01T02:54:21;101916.59;;;19.13;27.26
59409;BME280;45213;32.654;-115.458;2023-04-01T02:56:47;101916.56;;;19.19;27.22
59409;BME280;45213;32.654;-115.458;2023-04-01T02:59:14;101920.06;;;19.16;28.41
59409;BME280;45213;32.654;-115.458;2023-04-01T03:01:41;101912.31;;;19.01;27.83
59409;BME280;45213;32.654;-115.458;2023-04-01T03:04:07;101914.13;;;18.91;28.40
59409;BME280;45213;32.654;-115.458;2023-04-01T03:06:34;101911.56;;;18.82;27.58
59409;BME280;45213;32.654;-115.458;2023-04-01T03:09:00;101912.44;;;18.76;28.42
59409;BME280;45213;32.654;-115.458;2023-04-01T03:11:27;101928.28;;;18.78;28.63
59409;BME280;45213;32.654;-115.458;2023-04-01T03:13:54;101932.69;;;18.76;28.05
59409;BME280;45213;32.654;-115.458;2023-04-01T03:16:21;101928.28;;;18.73;29.36
59409;BME280;45213;32.654;-115.458;2023-04-01T03:18:50;101927.50;;;18.57;29.37
59409;BME280;45213;32.654;-115.458;2023-04-01T03:21:20;101929.34;;;18.43;29.38
59409;BME280;45213;32.654;-115.458;2023-04-01T03:23:47;101933.78;;;18.36;30.75
59409;BME280;45213;32.654;-115.458;2023-04-01T03:26:14;101930.28;;;18.30;30.44
59409;BME280;45213;32.654;-115.458;2023-04-01T03:28:42;101932.94;;;18.33;30.35
59409;BME280;45213;32.654;-115.458;2023-04-01T03:31:09;101934.72;;;18.23;30.92
59409;BME280;45213;32.654;-115.458;2023-04-01T03:33:42;101940.91;;;18.16;30.87
59409;BME280;45213;32.654;-115.458;2023-04-01T03:36:09;101938.31;;;18.14;31.05
59409;BME280;45213;32.654;-115.458;2023-04-01T03:38:40;101936.56;;;18.10;30.87
59409;BME280;45213;32.654;-115.458;2023-04-01T03:41:07;101937.44;;;18.12;30.96
59409;BME280;45213;32.654;-115.458;2023-04-01T03:43:37;101937.44;;;18.08;30.96
59409;BME280;45213;32.654;-115.458;2023-04-01T03:46:04;101943.56;;;18.05;31.06
59409;BME280;45213;32.654;-115.458;2023-04-01T03:48:31;101938.34;;;17.96;31.04
59409;BME280;45213;32.654;-115.458;2023-04-01T03:50:57;101941.88;;;17.95;30.94
59409;BME280;45213;32.654;-115.458;2023-04-01T03:53:25;101946.22;;;18.01;31.01
59409;BME280;45213;32.654;-115.458;2023-04-01T03:55:56;101949.78;;;17.95;31.30
59409;BME280;45213;32.654;-115.458;2023-04-01T03:58:23;101956.81;;;17.87;31.60
59409;BME280;45213;32.654;-115.458;2023-04-01T04:00:51;101954.19;;;17.79;32.04
59409;BME280;45213;32.654;-115.458;2023-04-01T04:03:17;101954.19;;;17.73;32.01
59409;BME280;45213;32.654;-115.458;2023-04-01T04:05:47;101948.91;;;17.68;32.27
59409;BME280;45213;32.654;-115.458;2023-04-01T04:08:15;101953.31;;;17.69;32.46
59409;BME280;45213;32.654;-115.458;2023-04-01T04:10:42;101951.56;;;17.70;32.27
59409;BME280;45213;32.654;-115.458;2023-04-01T04:13:10;101962.13;;;17.67;32.64
59409;BME280;45213;32.654;-115.458;2023-04-01T04:15:43;101949.84;;;17.58;32.10
59409;BME280;45213;32.654;-115.458;2023-04-01T04:18:09;101962.09;;;17.65;32.38
59409;BME280;45213;32.654;-115.458;2023-04-01T04:20:36;101962.97;;;17.61;33.04
59409;BME280;45213;32.654;-115.458;2023-04-01T04:23:03;101955.97;;;17.54;32.80
59409;BME280;45213;32.654;-115.458;2023-04-01T04:25:31;101970.88;;;17.50;33.47
59409;BME280;45213;32.654;-115.458;2023-04-01T04:27:58;101963.91;;;17.46;34.44
59409;BME280;45213;32.654;-115.458;2023-04-01T04:30:24;101975.28;;;17.41;35.36
59409;BME280;45213;32.654;-115.458;2023-04-01T04:32:51;101971.78;;;17.29;35.81
59409;BME280;45213;32.654;-115.458;2023-04-01T04:35:17;101967.41;;;17.28;35.28
59409;BME280;45213;32.654;-115.458;2023-04-01T04:37:45;101973.53;;;17.21;35.90
59409;BME280;45213;32.654;-115.458;2023-04-01T04:40:12;101974.41;;;17.06;36.11
59409;BME280;45213;32.654;-115.458;2023-04-01T04:42:40;101977.88;;;17.01;35.95
59409;BME280;45213;32.654;-115.458;2023-04-01T04:45:12;101973.53;;;17.00;36.10
59409;BME280;45213;32.654;-115.458;2023-04-01T04:47:43;101977.88;;;17.01;36.62
59409;BME280;45213;32.654;-115.458;2023-04-01T04:50:11;101979.66;;;17.06;37.61
59409;BME280;45213;32.654;-115.458;2023-04-01T04:52:39;101980.56;;;17.13;41.79
59409;BME280;45213;32.654;-115.458;2023-04-01T04:55:06;101980.53;;;16.95;41.39
59409;BME280;45213;32.654;-115.458;2023-04-01T04:57:33;101976.94;;;16.77;41.91
59409;BME280;45213;32.654;-115.458;2023-04-01T05:00:00;101977.78;;;16.61;41.76
59409;BME280;45213;32.654;-115.458;2023-04-01T05:02:52;101980.34;;;16.48;43.94
59409;BME280;45213;32.654;-115.458;2023-04-01T05:05:19;101984.72;;;16.36;46.28
59409;BME280;45213;32.654;-115.458;2023-04-01T05:07:46;101986.34;;;16.17;45.40
59409;BME280;45213;32.654;-115.458;2023-04-01T05:10:12;101981.03;;;16.04;44.96
59409;BME280;45213;32.654;-115.458;2023-04-01T05:12:39;101977.50;;;15.95;44.09
59409;BME280;45213;32.654;-115.458;2023-04-01T05:15:08;101985.44;;;16.04;44.33
59409;BME280;45213;32.654;-115.458;2023-04-01T05:17:35;101992.44;;;16.06;44.69
59409;BME280;45213;32.654;-115.458;2023-04-01T05:20:04;101988.94;;;16.04;45.18
59409;BME280;45213;32.654;-115.458;2023-04-01T05:22:31;101989.78;;;16.02;43.48
59409;BME280;45213;32.654;-115.458;2023-04-01T05:24:57;101988.97;;;16.11;44.84
59409;BME280;45213;32.654;-115.458;2023-04-01T05:27:24;101994.16;;;16.03;44.92
59409;BME280;45213;32.654;-115.458;2023-04-01T05:29:51;101993.31;;;16.04;43.66
59409;BME280;45213;32.654;-115.458;2023-04-01T05:32:50;101996.78;;;16.00;45.04
59409;BME280;45213;32.654;-115.458;2023-04-01T05:35:17;101988.84;;;15.88;45.81
59409;BME280;45213;32.654;-115.458;2023-04-01T05:37:43;101992.31;;;15.83;47.50
59409;BME280;45213;32.654;-115.458;2023-04-01T05:40:10;101995.81;;;15.81;44.17
59409;BME280;45213;32.654;-115.458;2023-04-01T05:42:37;101998.47;;;15.85;44.10
59409;BME280;45213;32.654;-115.458;2023-04-01T05:45:04;101995.84;;;15.90;45.33
59409;BME280;45213;32.654;-115.458;2023-04-01T05:47:59;101996.72;;;15.91;45.07
59409;BME280;45213;32.654;-115.458;2023-04-01T05:50:30;101998.47;;;15.89;44.08
59409;BME280;45213;32.654;-115.458;2023-04-01T05:52:56;102003.69;;;15.87;43.24
59409;BME280;45213;32.654;-115.458;2023-04-01T05:55:23;102003.69;;;15.87;44.63
59409;BME280;45213;32.654;-115.458;2023-04-01T05:57:51;102006.25;;;15.75;45.05
59409;BME280;45213;32.654;-115.458;2023-04-01T06:00:17;101997.44;;;15.70;45.47
59409;BME280;45213;32.654;-115.458;2023-04-01T06:02:46;102001.75;;;15.63;43.98
59409;BME280;45213;32.654;-115.458;2023-04-01T06:05:17;102002.63;;;15.60;45.24
59409;BME280;45213;32.654;-115.458;2023-04-01T06:07:44;101999.09;;;15.57;44.41
59409;BME280;45213;32.654;-115.458;2023-04-01T06:10:19;102000.78;;;15.50;44.15
59409;BME280;45213;32.654;-115.458;2023-04-01T06:15:38;102004.25;;;15.48;45.34
59409;BME280;45213;32.654;-115.458;2023-04-01T06:35:27;101996.31;;;15.41;43.98
59409;BME280;45213;32.654;-115.458;2023-04-01T06:47:51;101991.81;;;15.25;44.87
59409;BME280;45213;32.654;-115.458;2023-04-01T06:53:33;101995.19;;;15.09;44.74
59409;BME280;45213;32.654;-115.458;2023-04-01T06:56:11;101989.06;;;15.08;44.36
59409;BME280;45213;32.654;-115.458;2023-04-01T06:59:17;101980.28;;;15.08;46.37
59409;BME280;45213;32.654;-115.458;2023-04-01T07:01:53;101981.19;;;15.08;46.32
59409;BME280;45213;32.654;-115.458;2023-04-01T07:04:33;101988.09;;;15.00;46.69
59409;BME280;45213;32.654;-115.458;2023-04-01T07:09:41;101987.16;;;14.93;47.15
59409;BME280;45213;32.654;-115.458;2023-04-01T07:18:17;101982.69;;;14.83;44.44
59409;BME280;45213;32.654;-115.458;2023-04-01T07:20:46;101977.41;;;14.78;44.74
59409;BME280;45213;32.654;-115.458;2023-04-01T07:23:36;101978.19;;;14.73;44.24
59409;BME280;45213;32.654;-115.458;2023-04-01T07:26:27;101977.34;;;14.75;45.03
59409;BME280;45213;32.654;-115.458;2023-04-01T07:29:13;101974.56;;;14.61;44.29
59409;BME280;45213;32.654;-115.458;2023-04-01T07:34:25;101975.50;;;14.65;44.45
59409;BME280;45213;32.654;-115.458;2023-04-01T07:37:33;101973.63;;;14.55;43.80
59409;BME280;45213;32.654;-115.458;2023-04-01T07:46:26;101962.94;;;14.41;43.34
59409;BME280;45213;32.654;-115.458;2023-04-01T07:54:20;101963.72;;;14.34;44.01
59409;BME280;45213;32.654;-115.458;2023-04-01T07:56:57;101964.59;;;14.31;44.25
59409;BME280;45213;32.654;-115.458;2023-04-01T08:22:42;101957.38;;;14.16;44.52
59409;BME280;45213;32.654;-115.458;2023-04-01T08:25:28;101946.97;;;14.19;45.29
59409;BME280;45213;32.654;-115.458;2023-04-01T08:28:09;101949.53;;;14.15;44.27
59409;BME280;45213;32.654;-115.458;2023-04-01T08:36:10;101952.88;;;14.05;46.01
59409;BME280;45213;32.654;-115.458;2023-04-01T08:38:54;101944.91;;;13.95;45.33
59409;BME280;45213;32.654;-115.458;2023-04-01T08:56:36;101932.50;;;13.82;42.45
59409;BME280;45213;32.654;-115.458;2023-04-01T08:59:38;101926.34;;;13.80;41.42
59409;BME280;45213;32.654;-115.458;2023-04-01T09:06:05;101922.03;;;13.82;39.40
59409;BME280;45213;32.654;-115.458;2023-04-01T09:14:03;101916.84;;;13.87;38.76
59409;BME280;45213;32.654;-115.458;2023-04-01T09:27:04;101902.72;;;13.74;38.98
59409;BME280;45213;32.654;-115.458;2023-04-01T09:38:18;101896.41;;;13.58;38.42
59409;BME280;45213;32.654;-115.458;2023-04-01T09:41:52;101893.78;;;13.60;38.67
59409;BME280;45213;32.654;-115.458;2023-04-01T09:44:15;101890.22;;;13.54;38.35
59409;BME280;45213;32.654;-115.458;2023-04-01T09:52:45;101890.13;;;13.48;38.94
59409;BME280;45213;32.654;-115.458;2023-04-01T09:55:47;101890.13;;;13.48;38.66
59409;BME280;45213;32.654;-115.458;2023-04-01T10:01:34;101893.66;;;13.50;38.73
59409;BME280;45213;32.654;-115.458;2023-04-01T10:04:19;101884.88;;;13.45;38.71
59409;BME280;45213;32.654;-115.458;2023-04-01T10:40:36;101860.84;;;13.16;39.77
59409;BME280;45213;32.654;-115.458;2023-04-01T11:07:22;101862.22;;;12.92;41.49
59409;BME280;45213;32.654;-115.458;2023-04-01T11:24:01;101840.09;;;12.72;41.14
59409;BME280;45213;32.654;-115.458;2023-04-01T11:26:51;101848.81;;;12.72;40.79
59409;BME280;45213;32.654;-115.458;2023-04-01T11:32:29;101841.00;;;12.75;40.69
59409;BME280;45213;32.654;-115.458;2023-04-01T11:41:56;101850.31;;;12.58;40.08
59409;BME280;45213;32.654;-115.458;2023-04-01T11:45:23;101858.97;;;12.57;40.10
59409;BME280;45213;32.654;-115.458;2023-04-01T11:59:33;101864.09;;;12.51;39.31
59409;BME280;45213;32.654;-115.458;2023-04-01T12:05:23;101859.72;;;12.50;39.36
59409;BME280;45213;32.654;-115.458;2023-04-01T12:22:37;101856.50;;;12.63;40.47
59409;BME280;45213;32.654;-115.458;2023-04-01T12:25:36;101858.94;;;12.54;39.31
59409;BME280;45213;32.654;-115.458;2023-04-01T12:31:31;101853.81;;;12.60;39.75
59409;BME280;45213;32.654;-115.458;2023-04-01T12:36:10;101845.88;;;12.56;39.12
59409;BME280;45213;32.654;-115.458;2023-04-01T12:38:51;101852.00;;;12.58;39.67
59409;BME280;45213;32.654;-115.458;2023-04-01T12:53:12;101850.06;;;12.46;40.89
59409;BME280;45213;32.654;-115.458;2023-04-01T12:55:44;101848.31;;;12.45;40.60
59409;BME280;45213;32.654;-115.458;2023-04-01T13:12:28;101866.91;;;12.16;42.41
59409;BME280;45213;32.654;-115.458;2023-04-01T13:17:58;101860.97;;;12.23;41.53
59409;BME280;45213;32.654;-115.458;2023-04-01T13:20:48;101868.66;;;12.17;42.64
59409;BME280;45213;32.654;-115.458;2023-04-01T13:26:52;101871.19;;;12.11;43.38
59409;BME280;45213;32.654;-115.458;2023-04-01T13:29:41;101873.72;;;12.08;44.48
59409;BME280;45213;32.654;-115.458;2023-04-01T13:32:36;101875.22;;;11.95;45.21
59409;BME280;45213;32.654;-115.458;2023-04-01T13:43:42;101875.13;;;11.90;44.62
59409;BME280;45213;32.654;-115.458;2023-04-01T13:46:22;101880.25;;;11.87;45.14
59409;BME280;45213;32.654;-115.458;2023-04-01T14:00:23;101890.09;;;11.99;44.16
59409;BME280;45213;32.654;-115.458;2023-04-01T14:05:47;101892.06;;;12.12;45.20
59409;BME280;45213;32.654;-115.458;2023-04-01T14:08:59;101895.50;;;12.08;44.38
59409;BME280;45213;32.654;-115.458;2023-04-01T14:11:39;101882.63;;;12.19;43.28
59409;BME280;45213;32.654;-115.458;2023-04-01T14:19:44;101886.81;;;12.53;42.10
59409;BME280;45213;32.654;-115.458;2023-04-01T14:22:42;101887.56;;;12.48;40.40
59409;BME280;45213;32.654;-115.458;2023-04-01T14:25:36;101895.25;;;12.42;38.87
59409;BME280;45213;32.654;-115.458;2023-04-01T14:42:23;101904.81;;;12.87;37.44
59409;BME280;45213;32.654;-115.458;2023-04-01T14:50:47;101908.25;;;13.34;35.61
59409;BME280;45213;32.654;-115.458;2023-04-01T14:53:27;101920.81;;;13.58;34.32
59409;BME280;45213;32.654;-115.458;2023-04-01T14:55:57;101908.09;;;13.83;34.40
59409;BME280;45213;32.654;-115.458;2023-04-01T14:58:39;101904.03;;;14.08;33.21
59409;BME280;45213;32.654;-115.458;2023-04-01T15:09:38;101925.72;;;14.71;31.89
59409;BME280;45213;32.654;-115.458;2023-04-01T15:12:46;101923.25;;;14.87;31.13
59409;BME280;45213;32.654;-115.458;2023-04-01T15:15:16;101924.34;;;15.12;31.20
59409;BME280;45213;32.654;-115.458;2023-04-01T15:26:30;101922.34;;;15.99;31.30
59409;BME280;45213;32.654;-115.458;2023-04-01T15:35:30;101929.44;;;16.16;31.83
59409;BME280;45213;32.654;-115.458;2023-04-01T15:37:37;101933.88;;;16.37;31.93
59409;BME280;45213;32.654;-115.458;2023-04-01T15:48:52;101952.47;;;17.24;31.83
59409;BME280;45213;32.654;-115.458;2023-04-01T16:10:59;101952.41;;;17.93;29.73
59409;BME280;45213;32.654;-115.458;2023-04-01T16:16:25;101961.06;;;18.35;29.32
59409;BME280;45213;32.654;-115.458;2023-04-01T16:21:49;101963.50;;;18.66;28.13
59409;BME280;45213;32.654;-115.458;2023-04-01T16:30:17;101953.22;;;19.51;27.22
59409;BME280;45213;32.654;-115.458;2023-04-01T16:36:11;101945.16;;;19.70;25.44
59409;BME280;45213;32.654;-115.458;2023-04-01T16:38:47;101955.56;;;19.84;24.87
59409;BME280;45213;32.654;-115.458;2023-04-01T16:41:41;101957.19;;;19.95;25.17
59409;BME280;45213;32.654;-115.458;2023-04-01T16:46:58;101950.72;;;20.21;25.96
59409;BME280;45213;32.654;-115.458;2023-04-01T16:52:29;101950.63;;;20.29;26.29
59409;BME280;45213;32.654;-115.458;2023-04-01T16:55:20;101954.03;;;20.40;25.09
59409;BME280;45213;32.654;-115.458;2023-04-01T16:57:52;101953.16;;;20.39;25.13
59409;BME280;45213;32.654;-115.458;2023-04-01T17:00:38;101958.16;;;20.61;24.54
59409;BME280;45213;32.654;-115.458;2023-04-01T17:03:39;101959.88;;;20.63;23.92
59409;BME280;45213;32.654;-115.458;2023-04-01T17:09:34;101959.88;;;20.65;23.56
59409;BME280;45213;32.654;-115.458;2023-04-01T17:37:11;101970.06;;;21.97;22.10
59409;BME280;45213;32.654;-115.458;2023-04-01T17:39:46;101966.66;;;21.88;22.20
59409;BME280;45213;32.654;-115.458;2023-04-01T17:45:16;101966.59;;;21.43;23.08
59409;BME280;45213;32.654;-115.458;2023-04-01T17:50:51;101962.50;;;22.62;22.19
59409;BME280;45213;32.654;-115.458;2023-04-01T17:53:47;101957.34;;;23.31;21.30
59409;BME280;45213;32.654;-115.458;2023-04-01T17:56:34;101957.50;;;23.25;21.13
59409;BME280;45213;32.654;-115.458;2023-04-01T18:10:23;101947.69;;;23.28;21.15
59409;BME280;45213;32.654;-115.458;2023-04-01T18:15:40;101941.94;;;23.09;21.50
59409;BME280;45213;32.654;-115.458;2023-04-01T18:23:46;101950.41;;;22.49;22.09
59409;BME280;45213;32.654;-115.458;2023-04-01T18:26:22;101941.63;;;22.47;22.25
59409;BME280;45213;32.654;-115.458;2023-04-01T18:29:17;101933.00;;;22.76;20.92
59409;BME280;45213;32.654;-115.458;2023-04-01T18:31:51;101922.50;;;22.70;21.00
59409;BME280;45213;32.654;-115.458;2023-04-01T18:34:47;101918.72;;;23.18;20.91
59409;BME280;45213;32.654;-115.458;2023-04-01T18:37:32;101921.97;;;23.29;20.42
59409;BME280;45213;32.654;-115.458;2023-04-01T18:53:25;101915.44;;;24.34;19.33
59409;BME280;45213;32.654;-115.458;2023-04-01T18:55:59;101897.84;;;24.87;20.06
59409;BME280;45213;32.654;-115.458;2023-04-01T19:01:17;101892.03;;;24.47;18.10
59409;BME280;45213;32.654;-115.458;2023-04-01T19:07:21;101891.03;;;25.05;20.89
59409;BME280;45213;32.654;-115.458;2023-04-01T19:09:42;101892.28;;;24.94;19.58
59409;BME280;45213;32.654;-115.458;2023-04-01T19:12:37;101884.03;;;25.29;17.65
59409;BME280;45213;32.654;-115.458;2023-04-01T19:18:22;101873.66;;;25.70;18.05
59409;BME280;45213;32.654;-115.458;2023-04-01T19:20:53;101888.28;;;25.83;16.96
59409;BME280;45213;32.654;-115.458;2023-04-01T19:25:58;101864.81;;;25.44;17.07
59409;BME280;45213;32.654;-115.458;2023-04-01T19:28:51;101863.69;;;25.26;17.00
59409;BME280;45213;32.654;-115.458;2023-04-01T19:31:44;101850.59;;;25.69;17.19
59409;BME280;45213;32.654;-115.458;2023-04-01T19:34:27;101859.47;;;25.93;15.97
59409;BME280;45213;32.654;-115.458;2023-04-01T19:51:13;101821.84;;;25.28;14.89
59409;BME280;45213;32.654;-115.458;2023-04-01T19:54:12;101823.16;;;24.90;14.96
59409;BME280;45213;32.654;-115.458;2023-04-01T20:10:52;101784.81;;;26.35;15.27
59409;BME280;45213;32.654;-115.458;2023-04-01T20:16:12;101773.75;;;26.66;14.98
59409;BME280;45213;32.654;-115.458;2023-04-01T20:18:56;101776.38;;;26.24;14.55
59409;BME280;45213;32.654;-115.458;2023-04-01T20:32:44;101749.06;;;26.39;14.64
59409;BME280;45213;32.654;-115.458;2023-04-01T20:35:31;101748.47;;;26.53;14.11
59409;BME280;45213;32.654;-115.458;2023-04-01T20:44:13;101728.34;;;26.66;12.94
59409;BME280;45213;32.654;-115.458;2023-04-01T20:47:00;101727.66;;;26.19;14.24
59409;BME280;45213;32.654;-115.458;2023-04-01T20:49:40;101725.06;;;26.17;13.12
59409;BME280;45213;32.654;-115.458;2023-04-01T20:52:17;101720.72;;;26.15;13.67
59409;BME280;45213;32.654;-115.458;2023-04-01T20:55:05;101713.63;;;26.14;14.53
59409;BME280;45213;32.654;-115.458;2023-04-01T21:06:41;101677.28;;;26.73;13.58
59409;BME280;45213;32.654;-115.458;2023-04-01T21:29:02;101651.84;;;26.84;14.82
59409;BME280;45213;32.654;-115.458;2023-04-01T21:34:43;101645.81;;;26.79;13.46
59409;BME280;45213;32.654;-115.458;2023-04-01T21:37:41;101649.41;;;26.99;13.65
59409;BME280;45213;32.654;-115.458;2023-04-01T21:43:29;101650.19;;;27.01;14.15
59409;BME280;45213;32.654;-115.458;2023-04-01T22:00:38;101631.06;;;27.48;12.37
59409;BME280;45213;32.654;-115.458;2023-04-01T22:03:44;101631.00;;;27.12;13.10
59409;BME280;45213;32.654;-115.458;2023-04-01T22:09:25;101610.53;;;26.92;12.59
59409;BME280;45213;32.654;-115.458;2023-04-01T22:15:40;101604.97;;;27.53;13.71
59409;BME280;45213;32.654;-115.458;2023-04-01T22:18:43;101594.88;;;27.58;14.35
59409;BME280;45213;32.654;-115.458;2023-04-01T22:26:33;101584.34;;;27.55;13.88
59409;BME280;45213;32.654;-115.458;2023-04-01T22:31:43;101581.97;;;27.85;13.96
59409;BME280;45213;32.654;-115.458;2023-04-01T22:34:22;101571.78;;;27.75;14.19
59409;BME280;45213;32.654;-115.458;2023-04-01T22:36:56;101579.00;;;27.55;13.56
59409;BME280;45213;32.654;-115.458;2023-04-01T22:45:17;101571.09;;;27.35;10.71
59409;BME280;45213;32.654;-115.458;2023-04-01T22:48:47;101560.97;;;27.22;11.25
59409;BME280;45213;32.654;-115.458;2023-04-01T22:56:19;101559.94;;;27.61;9.62
59409;BME280;45213;32.654;-115.458;2023-04-01T22:58:54;101554.38;;;27.66;9.06
59409;BME280;45213;32.654;-115.458;2023-04-01T23:01:29;101556.03;;;27.51;8.92
59409;BME280;45213;32.654;-115.458;2023-04-01T23:03:59;101551.69;;;27.48;8.97
59409;BME280;45213;32.654;-115.458;2023-04-01T23:06:35;101545.94;;;27.56;9.41
59409;BME280;45213;32.654;-115.458;2023-04-01T23:09:29;101536.06;;;27.76;9.42
59409;BME280;45213;32.654;-115.458;2023-04-01T23:14:50;101527.41;;;27.88;10.47
59409;BME280;45213;32.654;-115.458;2023-04-01T23:20:00;101517.31;;;27.76;12.45
59409;BME280;45213;32.654;-115.458;2023-04-01T23:25:35;101503.94;;;27.93;12.50
59409;BME280;45213;32.654;-115.458;2023-04-01T23:38:36;101494.34;;;27.72;10.64
59409;BME280;45213;32.654;-115.458;2023-04-01T23:41:05;101497.00;;;27.72;12.06
59409;BME280;45213;32.654;-115.458;2023-04-01T23:43:37;101497.94;;;27.70;12.68
59409;BME280;45213;32.654;-115.458;2023-04-01T23:46:07;101494.66;;;27.65;12.49
59409;BME280;45213;32.654;-115.458;2023-04-01T23:48:40;101490.56;;;27.58;12.35